sensor_id;sensor_type;location;lat;lon;timestamp;P1;durP1;ratioP1;P2;durP2;ratioP2
61383;SDS011;63511;49.346;8.798;2022-10-18T00:01:13;23.58;;;5.55;;
61383;SDS011;63511;49.346;8.798;2022-10-18T00:03:39;18.35;;;6.72;;
61383;SDS011;63511;49.346;8.798;2022-10-18T00:06:05;27.08;;;6.22;;
61383;SDS011;63511;49.346;8.798;2022-10-18T00:08:33;14.82;;;5.75;;
61383;SDS011;63511;49.346;8.798;2022-10-18T00:10:59;24.48;;;7.60;;
61383;SDS011;63511;49.346;8.798;2022-10-18T00:13:25;21.58;;;8.55;;
61383;SDS011;63511;49.346;8.798;2022-10-18T00:15:57;16.65;;;7.78;;
61383;SDS011;63511;49.346;8.798;2022-10-18T00:18:24;28.67;;;6.00;;
61383;SDS011;63511;49.346;8.798;2022-10-18T00:20:56;17.38;;;5.88;;
61383;SDS011;63511;49.346;8.798;2022-10-18T00:23:30;11.93;;;4.97;;
61383;SDS011;63511;49.346;8.798;2022-10-18T00:26:17;16.10;;;6.85;;
61383;SDS011;63511;49.346;8.798;2022-10-18T00:28:43;19.42;;;5.20;;
61383;SDS011;63511;49.346;8.798;2022-10-18T00:31:17;13.70;;;5.90;;
61383;SDS011;63511;49.346;8.798;2022-10-18T00:33:46;19.30;;;5.75;;
61383;SDS011;63511;49.346;8.798;2022-10-18T00:36:14;14.35;;;5.75;;
61383;SDS011;63511;49.346;8.798;2022-10-18T00:38:39;18.67;;;6.50;;
61383;SDS011;63511;49.346;8.798;2022-10-18T00:41:06;13.52;;;5.78;;
61383;SDS011;63511;49.346;8.798;2022-10-18T00:43:49;18.25;;;5.50;;
61383;SDS011;63511;49.346;8.798;2022-10-18T00:46:15;23.95;;;7.53;;
61383;SDS011;63511;49.346;8.798;2022-10-18T00:48:43;21.23;;;7.22;;
61383;SDS011;63511;49.346;8.798;2022-10-18T00:51:13;21.48;;;7.63;;
61383;SDS011;63511;49.346;8.798;2022-10-18T00:53:40;21.55;;;6.45;;
61383;SDS011;63511;49.346;8.798;2022-10-18T00:56:06;20.23;;;6.75;;
61383;SDS011;63511;49.346;8.798;2022-10-18T00:58:31;14.00;;;5.72;;
61383;SDS011;63511;49.346;8.798;2022-10-18T01:01:00;11.32;;;5.80;;
61383;SDS011;63511;49.346;8.798;2022-10-18T01:03:25;17.00;;;5.90;;
61383;SDS011;63511;49.346;8.798;2022-10-18T01:05:51;15.63;;;7.00;;
61383;SDS011;63511;49.346;8.798;2022-10-18T01:08:26;18.23;;;5.75;;
61383;SDS011;63511;49.346;8.798;2022-10-18T01:16:23;18.95;;;5.65;;
61383;SDS011;63511;49.346;8.798;2022-10-18T01:19:05;19.15;;;7.30;;
61383;SDS011;63511;49.346;8.798;2022-10-18T01:21:44;15.88;;;5.85;;
61383;SDS011;63511;49.346;8.798;2022-10-18T01:32:49;12.02;;;6.10;;
61383;SDS011;63511;49.346;8.798;2022-10-18T01:35:26;15.27;;;6.20;;
61383;SDS011;63511;49.346;8.798;2022-10-18T01:37:56;27.98;;;6.40;;
61383;SDS011;63511;49.346;8.798;2022-10-18T01:40:29;10.93;;;5.78;;
61383;SDS011;63511;49.346;8.798;2022-10-18T01:42:56;18.83;;;6.00;;
61383;SDS011;63511;49.346;8.798;2022-10-18T01:45:24;13.02;;;6.35;;
61383;SDS011;63511;49.346;8.798;2022-10-18T01:47:50;14.93;;;5.20;;
61383;SDS011;63511;49.346;8.798;2022-10-18T01:50:21;16.10;;;5.20;;
61383;SDS011;63511;49.346;8.798;2022-10-18T01:52:52;13.60;;;5.97;;
61383;SDS011;63511;49.346;8.798;2022-10-18T01:55:22;25.60;;;7.63;;
61383;SDS011;63511;49.346;8.798;2022-10-18T01:58:09;14.10;;;5.70;;
61383;SDS011;63511;49.346;8.798;2022-10-18T02:01:06;14.23;;;5.53;;
61383;SDS011;63511;49.346;8.798;2022-10-18T02:03:42;9.38;;;5.60;;
61383;SDS011;63511;49.346;8.798;2022-10-18T02:06:19;31.70;;;8.20;;
61383;SDS011;63511;49.346;8.798;2022-10-18T02:11:35;17.00;;;6.55;;
61383;SDS011;63511;49.346;8.798;2022-10-18T02:14:07;15.70;;;6.32;;
61383;SDS011;63511;49.346;8.798;2022-10-18T02:19:42;14.77;;;5.72;;
61383;SDS011;63511;49.346;8.798;2022-10-18T02:22:14;24.80;;;6.15;;
61383;SDS011;63511;49.346;8.798;2022-10-18T02:24:42;15.07;;;6.03;;
61383;SDS011;63511;49.346;8.798;2022-10-18T02:27:12;21.17;;;6.40;;
61383;SDS011;63511;49.346;8.798;2022-10-18T02:29:37;26.77;;;6.20;;
61383;SDS011;63511;49.346;8.798;2022-10-18T02:34:34;15.73;;;5.47;;
61383;SDS011;63511;49.346;8.798;2022-10-18T02:37:03;27.00;;;6.53;;
61383;SDS011;63511;49.346;8.798;2022-10-18T02:39:32;16.63;;;5.18;;
61383;SDS011;63511;49.346;8.798;2022-10-18T02:41:59;8.15;;;5.30;;
61383;SDS011;63511;49.346;8.798;2022-10-18T02:44:30;17.17;;;5.90;;
61383;SDS011;63511;49.346;8.798;2022-10-18T02:46:56;15.32;;;5.95;;
61383;SDS011;63511;49.346;8.798;2022-10-18T02:49:21;18.38;;;6.50;;
61383;SDS011;63511;49.346;8.798;2022-10-18T02:51:46;16.15;;;6.38;;
61383;SDS011;63511;49.346;8.798;2022-10-18T02:54:12;19.90;;;5.18;;
61383;SDS011;63511;49.346;8.798;2022-10-18T02:56:39;21.50;;;5.72;;
61383;SDS011;63511;49.346;8.798;2022-10-18T02:59:05;21.27;;;6.30;;
61383;SDS011;63511;49.346;8.798;2022-10-18T03:01:31;19.92;;;6.20;;
61383;SDS011;63511;49.346;8.798;2022-10-18T03:03:57;22.67;;;7.90;;
61383;SDS011;63511;49.346;8.798;2022-10-18T03:06:23;11.60;;;5.60;;
61383;SDS011;63511;49.346;8.798;2022-10-18T03:08:48;17.10;;;6.35;;
61383;SDS011;63511;49.346;8.798;2022-10-18T03:11:18;14.15;;;5.63;;
61383;SDS011;63511;49.346;8.798;2022-10-18T03:13:43;14.00;;;6.43;;
61383;SDS011;63511;49.346;8.798;2022-10-18T03:16:09;23.17;;;7.03;;
61383;SDS011;63511;49.346;8.798;2022-10-18T03:18:34;19.50;;;6.18;;
61383;SDS011;63511;49.346;8.798;2022-10-18T03:21:05;13.10;;;5.90;;
61383;SDS011;63511;49.346;8.798;2022-10-18T03:23:33;12.27;;;6.05;;
61383;SDS011;63511;49.346;8.798;2022-10-18T03:25:59;13.65;;;5.85;;
61383;SDS011;63511;49.346;8.798;2022-10-18T03:28:25;19.60;;;6.78;;
61383;SDS011;63511;49.346;8.798;2022-10-18T03:30:53;14.27;;;5.72;;
61383;SDS011;63511;49.346;8.798;2022-10-18T03:33:26;19.20;;;5.90;;
61383;SDS011;63511;49.346;8.798;2022-10-18T03:35:54;22.33;;;6.50;;
61383;SDS011;63511;49.346;8.798;2022-10-18T03:38:19;21.02;;;5.70;;
61383;SDS011;63511;49.346;8.798;2022-10-18T03:40:45;13.95;;;6.75;;
61383;SDS011;63511;49.346;8.798;2022-10-18T03:43:10;22.33;;;6.10;;
61383;SDS011;63511;49.346;8.798;2022-10-18T03:45:35;15.38;;;6.28;;
61383;SDS011;63511;49.346;8.798;2022-10-18T03:48:03;10.77;;;5.28;;
61383;SDS011;63511;49.346;8.798;2022-10-18T03:50:28;20.25;;;5.30;;
61383;SDS011;63511;49.346;8.798;2022-10-18T03:52:56;8.60;;;4.70;;
61383;SDS011;63511;49.346;8.798;2022-10-18T03:55:24;10.93;;;5.15;;
61383;SDS011;63511;49.346;8.798;2022-10-18T03:57:49;22.20;;;5.97;;
61383;SDS011;63511;49.346;8.798;2022-10-18T04:00:16;15.13;;;7.80;;
61383;SDS011;63511;49.346;8.798;2022-10-18T04:02:42;17.10;;;5.03;;
61383;SDS011;63511;49.346;8.798;2022-10-18T04:05:07;11.27;;;5.03;;
61383;SDS011;63511;49.346;8.798;2022-10-18T04:07:33;15.77;;;6.05;;
61383;SDS011;63511;49.346;8.798;2022-10-18T04:10:02;11.77;;;5.72;;
61383;SDS011;63511;49.346;8.798;2022-10-18T04:12:29;25.65;;;5.90;;
61383;SDS011;63511;49.346;8.798;2022-10-18T04:14:55;13.15;;;5.55;;
61383;SDS011;63511;49.346;8.798;2022-10-18T04:17:23;13.43;;;5.38;;
61383;SDS011;63511;49.346;8.798;2022-10-18T04:19:48;22.60;;;6.60;;
61383;SDS011;63511;49.346;8.798;2022-10-18T04:22:13;18.50;;;6.38;;
61383;SDS011;63511;49.346;8.798;2022-10-18T04:24:39;12.93;;;5.65;;
61383;SDS011;63511;49.346;8.798;2022-10-18T04:27:04;15.07;;;5.60;;
61383;SDS011;63511;49.346;8.798;2022-10-18T04:29:33;20.05;;;5.47;;
61383;SDS011;63511;49.346;8.798;2022-10-18T04:32:00;12.23;;;5.07;;
61383;SDS011;63511;49.346;8.798;2022-10-18T04:34:26;13.95;;;5.78;;
61383;SDS011;63511;49.346;8.798;2022-10-18T04:36:51;16.58;;;6.43;;
61383;SDS011;63511;49.346;8.798;2022-10-18T04:39:16;20.20;;;6.60;;
61383;SDS011;63511;49.346;8.798;2022-10-18T04:41:44;11.38;;;5.43;;
61383;SDS011;63511;49.346;8.798;2022-10-18T04:44:09;16.65;;;7.05;;
61383;SDS011;63511;49.346;8.798;2022-10-18T04:46:35;17.45;;;6.60;;
61383;SDS011;63511;49.346;8.798;2022-10-18T04:49:00;14.23;;;5.28;;
61383;SDS011;63511;49.346;8.798;2022-10-18T04:51:28;12.68;;;5.75;;
61383;SDS011;63511;49.346;8.798;2022-10-18T04:53:54;20.52;;;7.60;;
61383;SDS011;63511;49.346;8.798;2022-10-18T04:56:19;15.80;;;5.88;;
61383;SDS011;63511;49.346;8.798;2022-10-18T04:58:45;14.57;;;6.13;;
61383;SDS011;63511;49.346;8.798;2022-10-18T05:01:15;10.45;;;5.30;;
61383;SDS011;63511;49.346;8.798;2022-10-18T05:03:41;18.85;;;6.28;;
61383;SDS011;63511;49.346;8.798;2022-10-18T05:06:06;12.35;;;5.90;;
61383;SDS011;63511;49.346;8.798;2022-10-18T05:08:32;16.85;;;8.52;;
61383;SDS011;63511;49.346;8.798;2022-10-18T05:10:59;14.55;;;7.05;;
61383;SDS011;63511;49.346;8.798;2022-10-18T05:13:24;17.50;;;6.57;;
61383;SDS011;63511;49.346;8.798;2022-10-18T05:15:50;9.00;;;6.07;;
61383;SDS011;63511;49.346;8.798;2022-10-18T05:18:15;17.15;;;7.15;;
61383;SDS011;63511;49.346;8.798;2022-10-18T05:20:41;17.80;;;7.80;;
61383;SDS011;63511;49.346;8.798;2022-10-18T05:23:09;15.68;;;6.22;;
61383;SDS011;63511;49.346;8.798;2022-10-18T05:25:37;13.80;;;6.03;;
61383;SDS011;63511;49.346;8.798;2022-10-18T05:28:05;11.30;;;5.43;;
61383;SDS011;63511;49.346;8.798;2022-10-18T05:30:30;15.43;;;6.45;;
61383;SDS011;63511;49.346;8.798;2022-10-18T05:32:58;16.00;;;6.40;;
61383;SDS011;63511;49.346;8.798;2022-10-18T05:35:26;15.57;;;6.40;;
61383;SDS011;63511;49.346;8.798;2022-10-18T05:37:51;13.23;;;7.38;;
61383;SDS011;63511;49.346;8.798;2022-10-18T05:40:16;13.05;;;6.95;;
61383;SDS011;63511;49.346;8.798;2022-10-18T05:42:42;12.45;;;6.93;;
61383;SDS011;63511;49.346;8.798;2022-10-18T05:45:07;15.25;;;9.48;;
61383;SDS011;63511;49.346;8.798;2022-10-18T05:47:33;26.90;;;12.98;;
61383;SDS011;63511;49.346;8.798;2022-10-18T05:50:00;23.20;;;8.88;;
61383;SDS011;63511;49.346;8.798;2022-10-18T05:52:29;25.45;;;8.73;;
61383;SDS011;63511;49.346;8.798;2022-10-18T05:54:57;19.40;;;7.10;;
61383;SDS011;63511;49.346;8.798;2022-10-18T05:57:27;15.65;;;7.05;;
61383;SDS011;63511;49.346;8.798;2022-10-18T05:59:52;32.90;;;8.52;;
61383;SDS011;63511;49.346;8.798;2022-10-18T06:02:18;23.88;;;8.30;;
61383;SDS011;63511;49.346;8.798;2022-10-18T06:04:43;15.10;;;6.50;;
61383;SDS011;63511;49.346;8.798;2022-10-18T06:07:09;17.10;;;6.18;;
61383;SDS011;63511;49.346;8.798;2022-10-18T06:09:35;11.43;;;6.28;;
61383;SDS011;63511;49.346;8.798;2022-10-18T06:12:01;16.10;;;6.65;;
61383;SDS011;63511;49.346;8.798;2022-10-18T06:14:27;25.35;;;7.40;;
61383;SDS011;63511;49.346;8.798;2022-10-18T06:16:52;18.00;;;6.70;;
61383;SDS011;63511;49.346;8.798;2022-10-18T06:19:20;17.60;;;7.57;;
61383;SDS011;63511;49.346;8.798;2022-10-18T06:21:45;24.73;;;8.02;;
61383;SDS011;63511;49.346;8.798;2022-10-18T06:24:11;13.00;;;6.80;;
61383;SDS011;63511;49.346;8.798;2022-10-18T06:26:36;18.55;;;6.28;;
61383;SDS011;63511;49.346;8.798;2022-10-18T06:29:01;22.25;;;6.78;;
61383;SDS011;63511;49.346;8.798;2022-10-18T06:31:27;10.73;;;6.32;;
61383;SDS011;63511;49.346;8.798;2022-10-18T06:33:54;15.35;;;6.70;;
61383;SDS011;63511;49.346;8.798;2022-10-18T06:36:20;13.02;;;5.85;;
61383;SDS011;63511;49.346;8.798;2022-10-18T06:38:49;12.65;;;6.53;;
61383;SDS011;63511;49.346;8.798;2022-10-18T06:41:15;20.85;;;7.32;;
61383;SDS011;63511;49.346;8.798;2022-10-18T06:43:41;19.40;;;6.68;;
61383;SDS011;63511;49.346;8.798;2022-10-18T06:46:07;9.18;;;5.60;;
61383;SDS011;63511;49.346;8.798;2022-10-18T06:48:34;23.25;;;6.38;;
61383;SDS011;63511;49.346;8.798;2022-10-18T06:51:00;11.65;;;6.00;;
61383;SDS011;63511;49.346;8.798;2022-10-18T06:53:29;21.23;;;7.15;;
61383;SDS011;63511;49.346;8.798;2022-10-18T06:55:59;23.48;;;6.97;;
61383;SDS011;63511;49.346;8.798;2022-10-18T06:58:32;28.25;;;7.15;;
61383;SDS011;63511;49.346;8.798;2022-10-18T07:01:03;8.63;;;6.32;;
61383;SDS011;63511;49.346;8.798;2022-10-18T07:03:30;22.35;;;6.93;;
61383;SDS011;63511;49.346;8.798;2022-10-18T07:05:58;20.90;;;7.03;;
61383;SDS011;63511;49.346;8.798;2022-10-18T07:08:25;13.20;;;6.70;;
61383;SDS011;63511;49.346;8.798;2022-10-18T07:10:51;13.90;;;6.32;;
61383;SDS011;63511;49.346;8.798;2022-10-18T07:13:17;25.95;;;6.88;;
61383;SDS011;63511;49.346;8.798;2022-10-18T07:15:43;17.88;;;7.10;;
61383;SDS011;63511;49.346;8.798;2022-10-18T07:18:08;15.40;;;7.88;;
61383;SDS011;63511;49.346;8.798;2022-10-18T07:20:33;18.05;;;7.82;;
61383;SDS011;63511;49.346;8.798;2022-10-18T07:22:59;20.17;;;7.25;;
61383;SDS011;63511;49.346;8.798;2022-10-18T07:25:24;27.30;;;8.65;;
61383;SDS011;63511;49.346;8.798;2022-10-18T07:27:49;21.13;;;8.85;;
61383;SDS011;63511;49.346;8.798;2022-10-18T07:30:15;17.40;;;8.95;;
61383;SDS011;63511;49.346;8.798;2022-10-18T07:32:40;15.35;;;8.02;;
61383;SDS011;63511;49.346;8.798;2022-10-18T07:35:06;17.98;;;9.23;;
61383;SDS011;63511;49.346;8.798;2022-10-18T07:37:31;21.75;;;7.82;;
61383;SDS011;63511;49.346;8.798;2022-10-18T07:39:57;14.02;;;8.90;;
61383;SDS011;63511;49.346;8.798;2022-10-18T07:42:22;17.30;;;7.85;;
61383;SDS011;63511;49.346;8.798;2022-10-18T07:44:47;13.15;;;9.00;;
61383;SDS011;63511;49.346;8.798;2022-10-18T07:47:13;37.10;;;9.65;;
61383;SDS011;63511;49.346;8.798;2022-10-18T07:49:49;17.02;;;8.57;;
61383;SDS011;63511;49.346;8.798;2022-10-18T07:52:15;19.58;;;7.88;;
61383;SDS011;63511;49.346;8.798;2022-10-18T07:54:40;18.67;;;9.50;;
61383;SDS011;63511;49.346;8.798;2022-10-18T07:57:05;16.42;;;8.88;;
61383;SDS011;63511;49.346;8.798;2022-10-18T07:59:31;10.18;;;8.18;;
61383;SDS011;63511;49.346;8.798;2022-10-18T08:01:56;16.35;;;9.25;;
61383;SDS011;63511;49.346;8.798;2022-10-18T08:04:21;20.95;;;9.25;;
61383;SDS011;63511;49.346;8.798;2022-10-18T08:06:47;14.90;;;8.60;;
61383;SDS011;63511;49.346;8.798;2022-10-18T08:09:12;23.65;;;8.88;;
61383;SDS011;63511;49.346;8.798;2022-10-18T08:11:40;11.00;;;7.95;;
61383;SDS011;63511;49.346;8.798;2022-10-18T08:14:06;16.83;;;9.15;;
61383;SDS011;63511;49.346;8.798;2022-10-18T08:16:33;18.52;;;8.77;;
61383;SDS011;63511;49.346;8.798;2022-10-18T08:18:59;19.75;;;9.95;;
61383;SDS011;63511;49.346;8.798;2022-10-18T08:21:30;28.95;;;10.75;;
61383;SDS011;63511;49.346;8.798;2022-10-18T08:23:56;15.20;;;9.07;;
61383;SDS011;63511;49.346;8.798;2022-10-18T08:26:21;15.50;;;8.50;;
61383;SDS011;63511;49.346;8.798;2022-10-18T08:28:49;23.70;;;9.55;;
61383;SDS011;63511;49.346;8.798;2022-10-18T08:31:15;17.05;;;10.10;;
61383;SDS011;63511;49.346;8.798;2022-10-18T08:33:42;19.08;;;10.38;;
61383;SDS011;63511;49.346;8.798;2022-10-18T08:36:09;22.75;;;12.35;;
61383;SDS011;63511;49.346;8.798;2022-10-18T08:38:37;19.48;;;11.55;;
61383;SDS011;63511;49.346;8.798;2022-10-18T08:41:15;20.60;;;11.18;;
61383;SDS011;63511;49.346;8.798;2022-10-18T08:46:44;13.63;;;8.02;;
61383;SDS011;63511;49.346;8.798;2022-10-18T08:49:24;16.08;;;8.57;;
61383;SDS011;63511;49.346;8.798;2022-10-18T08:51:52;17.30;;;9.10;;
61383;SDS011;63511;49.346;8.798;2022-10-18T08:57:13;15.82;;;8.90;;
61383;SDS011;63511;49.346;8.798;2022-10-18T08:59:42;22.20;;;9.03;;
61383;SDS011;63511;49.346;8.798;2022-10-18T09:04:54;18.17;;;8.57;;
61383;SDS011;63511;49.346;8.798;2022-10-18T09:16:00;23.67;;;7.63;;
61383;SDS011;63511;49.346;8.798;2022-10-18T09:21:02;14.43;;;6.85;;
61383;SDS011;63511;49.346;8.798;2022-10-18T09:26:40;13.48;;;7.38;;
61383;SDS011;63511;49.346;8.798;2022-10-18T09:34:45;11.35;;;7.20;;
61383;SDS011;63511;49.346;8.798;2022-10-18T09:37:16;18.15;;;6.68;;
61383;SDS011;63511;49.346;8.798;2022-10-18T09:39:44;18.55;;;6.03;;
61383;SDS011;63511;49.346;8.798;2022-10-18T09:42:22;11.68;;;6.65;;
61383;SDS011;63511;49.346;8.798;2022-10-18T09:44:52;9.40;;;6.40;;
61383;SDS011;63511;49.346;8.798;2022-10-18T09:47:26;11.88;;;5.93;;
61383;SDS011;63511;49.346;8.798;2022-10-18T09:50:12;9.23;;;5.55;;
61383;SDS011;63511;49.346;8.798;2022-10-18T09:52:51;10.82;;;6.00;;
61383;SDS011;63511;49.346;8.798;2022-10-18T09:55:32;13.13;;;5.80;;
61383;SDS011;63511;49.346;8.798;2022-10-18T09:58:14;11.38;;;6.13;;
61383;SDS011;63511;49.346;8.798;2022-10-18T10:00:43;11.55;;;5.53;;
61383;SDS011;63511;49.346;8.798;2022-10-18T10:03:14;9.80;;;5.57;;
61383;SDS011;63511;49.346;8.798;2022-10-18T10:05:40;10.68;;;5.85;;
61383;SDS011;63511;49.346;8.798;2022-10-18T10:08:10;16.73;;;5.65;;
61383;SDS011;63511;49.346;8.798;2022-10-18T10:10:44;13.25;;;7.18;;
61383;SDS011;63511;49.346;8.798;2022-10-18T10:13:15;13.50;;;5.95;;
61383;SDS011;63511;49.346;8.798;2022-10-18T10:15:53;10.68;;;5.93;;
61383;SDS011;63511;49.346;8.798;2022-10-18T10:18:22;16.60;;;6.95;;
61383;SDS011;63511;49.346;8.798;2022-10-18T10:20:53;6.97;;;5.55;;
61383;SDS011;63511;49.346;8.798;2022-10-18T10:23:43;12.70;;;6.13;;
61383;SDS011;63511;49.346;8.798;2022-10-18T10:29:02;9.80;;;5.18;;
61383;SDS011;63511;49.346;8.798;2022-10-18T10:31:29;10.20;;;6.07;;
61383;SDS011;63511;49.346;8.798;2022-10-18T10:34:02;11.57;;;6.40;;
61383;SDS011;63511;49.346;8.798;2022-10-18T10:36:30;23.73;;;7.15;;
61383;SDS011;63511;49.346;8.798;2022-10-18T10:39:01;14.32;;;7.55;;
61383;SDS011;63511;49.346;8.798;2022-10-18T10:41:30;13.98;;;7.72;;
61383;SDS011;63511;49.346;8.798;2022-10-18T10:43:55;14.98;;;7.00;;
61383;SDS011;63511;49.346;8.798;2022-10-18T10:46:21;25.55;;;14.32;;
61383;SDS011;63511;49.346;8.798;2022-10-18T10:51:27;10.40;;;7.10;;
61383;SDS011;63511;49.346;8.798;2022-10-18T10:53:59;11.57;;;7.25;;
61383;SDS011;63511;49.346;8.798;2022-10-18T10:56:25;13.95;;;8.30;;
61383;SDS011;63511;49.346;8.798;2022-10-18T10:58:54;14.27;;;7.10;;
61383;SDS011;63511;49.346;8.798;2022-10-18T11:03:55;15.05;;;7.90;;
61383;SDS011;63511;49.346;8.798;2022-10-18T11:09:02;10.82;;;8.05;;
61383;SDS011;63511;49.346;8.798;2022-10-18T11:11:38;13.25;;;7.47;;
61383;SDS011;63511;49.346;8.798;2022-10-18T11:14:17;13.05;;;6.82;;
61383;SDS011;63511;49.346;8.798;2022-10-18T11:16:52;11.85;;;6.95;;
61383;SDS011;63511;49.346;8.798;2022-10-18T11:19:26;16.45;;;7.18;;
61383;SDS011;63511;49.346;8.798;2022-10-18T11:21:56;11.00;;;6.97;;
61383;SDS011;63511;49.346;8.798;2022-10-18T11:24:26;10.45;;;7.45;;
61383;SDS011;63511;49.346;8.798;2022-10-18T11:27:00;14.18;;;7.55;;
61383;SDS011;63511;49.346;8.798;2022-10-18T11:43:26;12.98;;;7.13;;
61383;SDS011;63511;49.346;8.798;2022-10-18T11:51:56;14.88;;;6.28;;
61383;SDS011;63511;49.346;8.798;2022-10-18T11:57:45;11.85;;;5.13;;
61383;SDS011;63511;49.346;8.798;2022-10-18T12:00:48;6.72;;;4.88;;
61383;SDS011;63511;49.346;8.798;2022-10-18T12:03:23;10.10;;;5.05;;
61383;SDS011;63511;49.346;8.798;2022-10-18T12:05:57;7.13;;;4.50;;
61383;SDS011;63511;49.346;8.798;2022-10-18T12:08:32;8.95;;;5.07;;
61383;SDS011;63511;49.346;8.798;2022-10-18T12:11:05;8.98;;;4.15;;
61383;SDS011;63511;49.346;8.798;2022-10-18T12:13:45;8.82;;;4.45;;
61383;SDS011;63511;49.346;8.798;2022-10-18T12:16:11;7.15;;;4.00;;
61383;SDS011;63511;49.346;8.798;2022-10-18T12:18:46;10.32;;;4.10;;
61383;SDS011;63511;49.346;8.798;2022-10-18T12:21:19;6.45;;;3.92;;
61383;SDS011;63511;49.346;8.798;2022-10-18T12:23:54;4.55;;;4.03;;
61383;SDS011;63511;49.346;8.798;2022-10-18T12:26:23;5.75;;;4.15;;
61383;SDS011;63511;49.346;8.798;2022-10-18T12:29:02;6.78;;;4.03;;
61383;SDS011;63511;49.346;8.798;2022-10-18T12:39:48;7.63;;;3.38;;
61383;SDS011;63511;49.346;8.798;2022-10-18T12:42:39;9.30;;;3.33;;
61383;SDS011;63511;49.346;8.798;2022-10-18T12:48:06;4.25;;;3.30;;
61383;SDS011;63511;49.346;8.798;2022-10-18T12:50:33;5.85;;;3.13;;
61383;SDS011;63511;49.346;8.798;2022-10-18T12:55:37;4.07;;;3.30;;
61383;SDS011;63511;49.346;8.798;2022-10-18T12:58:19;7.10;;;4.10;;
61383;SDS011;63511;49.346;8.798;2022-10-18T13:00:51;6.93;;;3.50;;
61383;SDS011;63511;49.346;8.798;2022-10-18T13:05:58;3.30;;;2.83;;
61383;SDS011;63511;49.346;8.798;2022-10-18T13:16:57;7.43;;;2.33;;
61383;SDS011;63511;49.346;8.798;2022-10-18T13:19:45;5.65;;;2.22;;
61383;SDS011;63511;49.346;8.798;2022-10-18T13:22:16;2.67;;;2.17;;
61383;SDS011;63511;49.346;8.798;2022-10-18T13:24:44;5.00;;;2.90;;
61383;SDS011;63511;49.346;8.798;2022-10-18T13:30:16;4.57;;;2.75;;
61383;SDS011;63511;49.346;8.798;2022-10-18T13:33:04;5.35;;;2.20;;
61383;SDS011;63511;49.346;8.798;2022-10-18T13:35:53;5.78;;;2.10;;
61383;SDS011;63511;49.346;8.798;2022-10-18T13:48:58;3.78;;;2.20;;
61383;SDS011;63511;49.346;8.798;2022-10-18T13:51:40;6.80;;;2.63;;
61383;SDS011;63511;49.346;8.798;2022-10-18T14:09:01;7.18;;;2.25;;
61383;SDS011;63511;49.346;8.798;2022-10-18T14:11:38;3.88;;;2.10;;
61383;SDS011;63511;49.346;8.798;2022-10-18T14:14:23;3.13;;;2.47;;
61383;SDS011;63511;49.346;8.798;2022-10-18T14:17:03;6.95;;;2.65;;
61383;SDS011;63511;49.346;8.798;2022-10-18T14:19:35;7.85;;;2.95;;
61383;SDS011;63511;49.346;8.798;2022-10-18T14:22:09;7.03;;;3.10;;
61383;SDS011;63511;49.346;8.798;2022-10-18T14:30:12;5.82;;;3.33;;
61383;SDS011;63511;49.346;8.798;2022-10-18T14:32:44;9.48;;;3.25;;
61383;SDS011;63511;49.346;8.798;2022-10-18T14:35:31;4.40;;;3.03;;
61383;SDS011;63511;49.346;8.798;2022-10-18T14:37:59;7.40;;;2.88;;
61383;SDS011;63511;49.346;8.798;2022-10-18T14:40:30;4.78;;;2.88;;
61383;SDS011;63511;49.346;8.798;2022-10-18T14:43:12;5.85;;;2.42;;
61383;SDS011;63511;49.346;8.798;2022-10-18T14:45:44;9.30;;;3.17;;
61383;SDS011;63511;49.346;8.798;2022-10-18T14:48:14;5.43;;;2.83;;
61383;SDS011;63511;49.346;8.798;2022-10-18T14:50:45;11.45;;;2.70;;
61383;SDS011;63511;49.346;8.798;2022-10-18T14:53:14;7.85;;;2.45;;
61383;SDS011;63511;49.346;8.798;2022-10-18T14:55:42;11.77;;;3.33;;
61383;SDS011;63511;49.346;8.798;2022-10-18T14:58:19;4.55;;;2.83;;
61383;SDS011;63511;49.346;8.798;2022-10-18T15:00:47;4.80;;;2.28;;
61383;SDS011;63511;49.346;8.798;2022-10-18T15:03:14;4.13;;;2.92;;
61383;SDS011;63511;49.346;8.798;2022-10-18T15:06:04;5.50;;;2.55;;
61383;SDS011;63511;49.346;8.798;2022-10-18T15:08:36;6.85;;;2.88;;
61383;SDS011;63511;49.346;8.798;2022-10-18T15:11:06;5.50;;;2.90;;
61383;SDS011;63511;49.346;8.798;2022-10-18T15:13:33;7.97;;;3.38;;
61383;SDS011;63511;49.346;8.798;2022-10-18T15:16:01;4.45;;;3.42;;
61383;SDS011;63511;49.346;8.798;2022-10-18T15:18:29;3.95;;;3.05;;
61383;SDS011;63511;49.346;8.798;2022-10-18T15:23:49;5.10;;;2.80;;
61383;SDS011;63511;49.346;8.798;2022-10-18T15:26:20;7.35;;;3.03;;
61383;SDS011;63511;49.346;8.798;2022-10-18T15:28:50;11.23;;;3.80;;
61383;SDS011;63511;49.346;8.798;2022-10-18T15:33:51;10.00;;;2.90;;
61383;SDS011;63511;49.346;8.798;2022-10-18T15:36:36;6.93;;;3.35;;
61383;SDS011;63511;49.346;8.798;2022-10-18T15:39:04;6.40;;;2.88;;
61383;SDS011;63511;49.346;8.798;2022-10-18T15:41:41;4.30;;;2.45;;
61383;SDS011;63511;49.346;8.798;2022-10-18T15:44:17;4.20;;;2.58;;
61383;SDS011;63511;49.346;8.798;2022-10-18T15:54:54;3.90;;;2.78;;
61383;SDS011;63511;49.346;8.798;2022-10-18T15:57:20;11.05;;;2.85;;
61383;SDS011;63511;49.346;8.798;2022-10-18T15:59:52;13.98;;;2.85;;
61383;SDS011;63511;49.346;8.798;2022-10-18T16:02:21;12.27;;;2.88;;
61383;SDS011;63511;49.346;8.798;2022-10-18T16:04:46;5.43;;;2.70;;
61383;SDS011;63511;49.346;8.798;2022-10-18T16:07:12;4.43;;;2.45;;
61383;SDS011;63511;49.346;8.798;2022-10-18T16:09:38;4.18;;;3.00;;
61383;SDS011;63511;49.346;8.798;2022-10-18T16:12:05;10.85;;;2.75;;
61383;SDS011;63511;49.346;8.798;2022-10-18T16:14:31;17.55;;;3.05;;
61383;SDS011;63511;49.346;8.798;2022-10-18T16:17:04;6.35;;;3.33;;
61383;SDS011;63511;49.346;8.798;2022-10-18T16:19:34;8.38;;;2.80;;
61383;SDS011;63511;49.346;8.798;2022-10-18T16:21:59;7.82;;;2.90;;
61383;SDS011;63511;49.346;8.798;2022-10-18T16:24:27;12.73;;;3.10;;
61383;SDS011;63511;49.346;8.798;2022-10-18T16:26:52;3.90;;;2.55;;
61383;SDS011;63511;49.346;8.798;2022-10-18T16:29:19;4.05;;;2.72;;
61383;SDS011;63511;49.346;8.798;2022-10-18T16:31:49;7.28;;;3.00;;
61383;SDS011;63511;49.346;8.798;2022-10-18T16:34:17;16.88;;;3.40;;
61383;SDS011;63511;49.346;8.798;2022-10-18T16:36:45;13.98;;;2.92;;
61383;SDS011;63511;49.346;8.798;2022-10-18T16:39:15;7.90;;;2.65;;
61383;SDS011;63511;49.346;8.798;2022-10-18T16:41:42;9.38;;;3.25;;
61383;SDS011;63511;49.346;8.798;2022-10-18T16:44:10;8.18;;;3.28;;
61383;SDS011;63511;49.346;8.798;2022-10-18T16:46:36;16.15;;;3.45;;
61383;SDS011;63511;49.346;8.798;2022-10-18T16:49:02;11.95;;;3.47;;
61383;SDS011;63511;49.346;8.798;2022-10-18T16:51:33;8.93;;;2.72;;
61383;SDS011;63511;49.346;8.798;2022-10-18T16:53:58;7.10;;;3.25;;
61383;SDS011;63511;49.346;8.798;2022-10-18T16:56:27;8.68;;;3.20;;
61383;SDS011;63511;49.346;8.798;2022-10-18T16:58:57;8.48;;;3.40;;
61383;SDS011;63511;49.346;8.798;2022-10-18T17:01:23;8.13;;;3.15;;
61383;SDS011;63511;49.346;8.798;2022-10-18T17:03:53;16.58;;;5.22;;
61383;SDS011;63511;49.346;8.798;2022-10-18T17:06:25;8.65;;;4.22;;
61383;SDS011;63511;49.346;8.798;2022-10-18T17:08:55;20.48;;;4.10;;
61383;SDS011;63511;49.346;8.798;2022-10-18T17:11:24;20.60;;;3.70;;
61383;SDS011;63511;49.346;8.798;2022-10-18T17:13:52;8.38;;;3.10;;
61383;SDS011;63511;49.346;8.798;2022-10-18T17:16:25;10.25;;;3.90;;
61383;SDS011;63511;49.346;8.798;2022-10-18T17:18:53;7.70;;;3.10;;
61383;SDS011;63511;49.346;8.798;2022-10-18T17:21:19;6.32;;;2.83;;
61383;SDS011;63511;49.346;8.798;2022-10-18T17:23:45;5.22;;;3.50;;
61383;SDS011;63511;49.346;8.798;2022-10-18T17:26:18;9.63;;;3.30;;
61383;SDS011;63511;49.346;8.798;2022-10-18T17:28:54;7.50;;;3.88;;